createdAt,value
2023-05-26T00:03:36.054Z,17.40
2023-05-26T00:08:39.160Z,17.50
2023-05-26T00:13:42.165Z,17.80
2023-05-26T00:18:46.532Z,17.80
2023-05-26T00:23:49.487Z,17.60
2023-05-26T00:28:52.444Z,17.70
2023-05-26T00:33:56.708Z,17.50
2023-05-26T00:38:59.955Z,17.30
2023-05-26T00:44:03.300Z,17.20
2023-05-26T00:49:07.585Z,17.20
2023-05-26T00:54:11.653Z,17.20
2023-05-26T00:59:16.341Z,16.90
2023-05-26T01:04:21.670Z,16.60
2023-05-26T01:09:25.287Z,16.50
2023-05-26T01:14:34.023Z,16.60
2023-05-26T01:20:03.161Z,16.60
2023-05-26T01:25:19.746Z,17.00
2023-05-26T01:30:24.145Z,17.00
2023-05-26T01:35:27.393Z,17.20
2023-05-26T01:40:33.065Z,17.00
2023-05-26T01:45:44.438Z,17.20
2023-05-26T01:50:54.678Z,17.10
2023-05-26T01:56:00.774Z,17.10
2023-05-26T02:01:07.033Z,17.10
2023-05-26T02:06:11.381Z,17.00
2023-05-26T02:11:15.112Z,17.00
2023-05-26T02:16:22.819Z,17.00
2023-05-26T02:21:26.188Z,16.60
2023-05-26T02:26:29.191Z,16.70
2023-05-26T02:31:41.989Z,16.70
2023-05-26T02:36:46.222Z,16.60
2023-05-26T02:41:50.386Z,16.70
2023-05-26T02:46:54.685Z,16.60
2023-05-26T02:51:57.637Z,16.60
2023-05-26T02:57:00.675Z,16.50
2023-05-26T03:02:05.169Z,16.40
2023-05-26T03:07:09.106Z,16.30
2023-05-26T03:12:16.878Z,16.20
2023-05-26T03:17:21.488Z,16.20
2023-05-26T03:22:41.444Z,16.20
2023-05-26T03:27:47.954Z,16.30
2023-05-26T03:32:52.279Z,16.20
2023-05-26T03:37:55.326Z,16.30
2023-05-26T03:42:58.388Z,16.20
2023-05-26T03:48:09.614Z,16.30
2023-05-26T03:53:14.062Z,16.20
2023-05-26T03:58:18.726Z,16.10
2023-05-26T04:03:23.185Z,16.20
2023-05-26T04:08:27.932Z,16.10
2023-05-26T04:13:30.880Z,16.20
2023-05-26T04:18:35.742Z,16.20
2023-05-26T04:23:39.075Z,16.10
2023-05-26T04:28:42.182Z,16.00
2023-05-26T04:34:11.586Z,16.00
2023-05-26T04:39:39.283Z,16.00
2023-05-26T04:44:44.552Z,15.90
2023-05-26T04:49:49.160Z,16.00
2023-05-26T04:54:52.220Z,16.10
2023-05-26T04:59:55.342Z,16.10
2023-05-26T05:04:59.625Z,16.20
2023-05-26T05:10:04.157Z,16.30
2023-05-26T05:15:10.563Z,16.40
2023-05-26T05:20:18.416Z,16.60
2023-05-26T05:25:24.622Z,16.60
2023-05-26T05:30:27.640Z,16.70
2023-05-26T05:35:32.396Z,16.80
2023-05-26T05:40:35.612Z,17.10
2023-05-26T05:45:38.804Z,17.10
2023-05-26T05:50:43.104Z,17.30
2023-05-26T05:55:47.549Z,17.40
2023-05-26T06:00:50.957Z,17.30
2023-05-26T06:05:55.615Z,17.40
2023-05-26T06:10:58.676Z,17.30
2023-05-26T06:16:05.974Z,17.50
2023-05-26T06:21:10.382Z,17.60
2023-05-26T06:26:14.737Z,17.50
2023-05-26T06:31:17.973Z,17.60
2023-05-26T06:36:37.714Z,17.80
2023-05-26T06:41:40.766Z,18.00
2023-05-26T06:46:44.075Z,18.10
2023-05-26T06:51:48.631Z,18.20
2023-05-26T06:56:52.528Z,18.20
2023-05-26T07:01:57.660Z,18.20
2023-05-26T07:07:02.441Z,18.20
2023-05-26T07:12:07.436Z,18.30
2023-05-26T07:17:18.275Z,18.20
2023-05-26T07:22:24.664Z,18.40
2023-05-26T07:27:47.102Z,18.20
2023-05-26T07:32:50.334Z,18.40
2023-05-26T07:37:55.695Z,18.30
2023-05-26T07:42:58.612Z,18.50
2023-05-26T07:48:01.541Z,18.80
2023-05-26T07:53:05.891Z,19.20
2023-05-26T07:58:11.185Z,19.50
2023-05-26T08:03:14.357Z,19.30
2023-05-26T08:08:18.767Z,19.10
2023-05-26T08:13:21.674Z,19.20
2023-05-26T08:18:24.577Z,19.60
2023-05-26T08:23:28.837Z,19.60
2023-05-26T08:28:31.842Z,19.90
2023-05-26T08:33:34.760Z,19.60
2023-05-26T08:38:39.016Z,19.60
2023-05-26T08:43:53.408Z,19.50
2023-05-26T08:49:00.022Z,19.60
2023-05-26T08:54:04.933Z,19.80
2023-05-26T09:04:14.324Z,20.10
2023-05-26T09:09:19.674Z,20.50
2023-05-26T09:14:23.539Z,20.30
2023-05-26T09:19:28.101Z,20.50
2023-05-26T09:24:32.383Z,20.60
2023-05-26T09:29:48.592Z,20.50
2023-05-26T09:34:52.245Z,20.70
2023-05-26T09:39:56.893Z,20.80
2023-05-26T09:44:59.789Z,20.80
2023-05-26T09:50:07.034Z,21.00
2023-05-26T09:55:11.655Z,21.10
2023-05-26T10:00:18.475Z,21.10
2023-05-26T10:05:23.374Z,21.30
2023-05-26T10:10:30.532Z,20.90
2023-05-26T10:15:34.629Z,21.00
2023-05-26T10:20:38.626Z,20.90
2023-05-26T10:25:51.872Z,21.20
2023-05-26T10:31:00.751Z,21.50
2023-05-26T10:36:08.667Z,21.40
2023-05-26T10:41:14.011Z,21.60
2023-05-26T10:46:17.060Z,21.30
2023-05-26T10:51:27.527Z,21.40
2023-05-26T10:56:42.825Z,21.50
2023-05-26T11:01:52.428Z,21.70
2023-05-26T11:07:01.476Z,21.90
2023-05-26T11:12:07.661Z,21.80
2023-05-26T11:17:10.705Z,21.80
2023-05-26T11:22:16.594Z,21.70
2023-05-26T11:27:20.917Z,21.60
2023-05-26T11:32:34.889Z,21.80
2023-05-26T11:37:38.309Z,22.10
2023-05-26T11:42:46.007Z,22.10
2023-05-26T11:47:55.848Z,22.10
2023-05-26T11:52:59.219Z,22.40
2023-05-26T11:58:06.328Z,22.70
2023-05-26T12:03:29.819Z,22.40
2023-05-26T12:08:46.093Z,22.60
2023-05-26T12:13:56.732Z,22.50
2023-05-26T12:19:07.666Z,22.80
2023-05-26T12:24:11.015Z,22.80
2023-05-26T12:29:17.563Z,22.80
2023-05-26T12:34:22.892Z,22.70
2023-05-26T12:39:27.450Z,22.70
2023-05-26T12:44:31.730Z,22.70
2023-05-26T12:49:34.679Z,22.80
2023-05-26T12:54:37.668Z,22.90
2023-05-26T12:59:44.988Z,23.00
2023-05-26T13:05:21.090Z,23.00
2023-05-26T13:10:31.470Z,23.20
2023-05-26T13:15:39.573Z,23.30
2023-05-26T13:20:43.065Z,23.30
2023-05-26T13:25:46.399Z,23.30
2023-05-26T13:30:51.188Z,23.40
2023-05-26T13:35:54.988Z,23.30
2023-05-26T13:40:59.983Z,23.60
2023-05-26T13:46:04.737Z,23.60
2023-05-26T13:51:07.737Z,23.50
2023-05-26T13:56:24.886Z,23.70
2023-05-26T14:01:37.844Z,24.00
2023-05-26T14:06:41.625Z,23.90
2023-05-26T14:11:44.611Z,24.10
2023-05-26T14:16:49.170Z,24.00
2023-05-26T14:22:08.726Z,24.00
2023-05-26T14:27:15.570Z,23.90
2023-05-26T14:32:19.898Z,24.20
2023-05-26T14:37:22.952Z,24.20
2023-05-26T14:42:25.927Z,24.20
2023-05-26T14:47:53.680Z,24.20
2023-05-26T14:53:18.830Z,24.10
2023-05-26T14:58:41.073Z,24.10
2023-05-26T15:04:12.682Z,24.30
2023-05-26T15:09:30.111Z,24.40
2023-05-26T15:15:05.753Z,24.50
2023-05-26T15:20:50.846Z,24.40
2023-05-26T15:31:54.186Z,24.60
2023-05-26T15:37:21.907Z,24.70
2023-05-26T15:42:25.198Z,24.80
2023-05-26T15:48:03.794Z,24.70
2023-05-26T15:53:31.092Z,24.70
2023-05-26T15:58:34.282Z,24.80
2023-05-26T16:03:37.273Z,24.70
2023-05-26T16:08:43.169Z,24.80
2023-05-26T16:13:46.403Z,24.80
2023-05-26T16:18:52.854Z,24.80
2023-05-26T16:24:02.050Z,24.80
2023-05-26T16:29:06.525Z,25.00
2023-05-26T16:34:13.839Z,25.00
2023-05-26T16:39:18.600Z,24.80
2023-05-26T16:44:21.582Z,24.80
2023-05-26T16:49:24.569Z,24.70
2023-05-26T16:54:28.852Z,24.60
2023-05-26T16:59:32.074Z,24.60
2023-05-26T17:04:35.518Z,24.60
2023-05-26T17:09:39.881Z,24.80
2023-05-26T17:14:42.936Z,24.80
2023-05-26T17:19:45.966Z,24.70
2023-05-26T17:24:50.288Z,24.60
2023-05-26T17:29:53.268Z,24.40
2023-05-26T17:34:58.741Z,24.40
2023-05-26T17:40:03.343Z,24.30
2023-05-26T17:45:07.662Z,24.50
2023-05-26T17:50:12.164Z,24.40
2023-05-26T17:55:20.431Z,24.50
2023-05-26T18:00:24.179Z,24.40
2023-05-26T18:05:27.132Z,24.30
2023-05-26T18:10:32.044Z,24.30
2023-05-26T18:15:35.114Z,24.30
2023-05-26T18:20:38.524Z,24.30
2023-05-26T18:25:42.919Z,24.10
2023-05-26T18:30:46.012Z,24.30
2023-05-26T18:35:49.043Z,24.10
2023-05-26T18:40:53.395Z,23.80
2023-05-26T18:45:56.437Z,23.90
2023-05-26T18:50:59.473Z,23.80
2023-05-26T18:56:05.449Z,23.70
2023-05-26T19:01:08.515Z,23.30
2023-05-26T19:06:11.714Z,23.10
2023-05-26T19:11:16.896Z,22.70
2023-05-26T19:16:20.346Z,22.40
2023-05-26T19:21:23.423Z,22.10
2023-05-26T19:26:35.521Z,22.00
2023-05-26T19:32:21.543Z,21.90
2023-05-26T19:50:45.003Z,21.40
2023-05-26T19:55:48.464Z,21.20
2023-05-26T20:13:19.368Z,21.10
2023-05-26T20:18:22.422Z,21.10
2023-05-26T20:23:25.396Z,21.00
2023-05-26T20:28:29.802Z,21.10
2023-05-26T20:33:34.725Z,21.30
2023-05-26T20:38:39.235Z,21.50
2023-05-26T20:43:43.656Z,21.60
2023-05-26T20:48:48.198Z,21.60
2023-05-26T20:53:51.496Z,20.60
2023-05-26T20:58:56.145Z,20.20
2023-05-26T21:03:59.154Z,20.10
2023-05-26T21:09:02.128Z,19.90
2023-05-26T21:14:06.453Z,19.90
2023-05-26T21:19:09.628Z,19.70
2023-05-26T21:24:12.599Z,19.70
2023-05-26T21:29:16.908Z,19.30
2023-05-26T21:34:19.884Z,19.20
2023-05-26T21:39:28.959Z,19.10
2023-05-26T21:44:33.338Z,18.80
2023-05-26T21:49:36.382Z,18.70
2023-05-26T21:54:39.337Z,18.70
2023-05-26T21:59:43.652Z,18.70
2023-05-26T22:04:46.753Z,18.60
2023-05-26T22:09:49.666Z,18.70
2023-05-26T22:14:53.957Z,18.60
2023-05-26T22:19:57.002Z,18.60
2023-05-26T22:24:59.996Z,18.60
2023-05-26T22:30:05.018Z,18.60
2023-05-26T22:35:08.539Z,18.90
2023-05-26T22:40:12.935Z,18.70
2023-05-26T22:45:17.412Z,18.90
2023-05-26T22:50:20.361Z,18.90
2023-05-26T22:55:31.682Z,18.50
2023-05-26T23:00:44.902Z,18.40
2023-05-26T23:05:47.845Z,18.70
2023-05-26T23:10:50.983Z,18.30
2023-05-26T23:15:55.347Z,18.00
2023-05-26T23:20:58.427Z,17.70
2023-05-26T23:26:01.558Z,17.80
2023-05-26T23:31:05.924Z,17.60
2023-05-26T23:36:10.029Z,17.50
2023-05-26T23:41:12.952Z,17.90
2023-05-26T23:46:17.338Z,18.00
2023-05-26T23:51:20.415Z,17.90
2023-05-26T23:56:23.406Z,18.20
